sensor_id;sensor_type;location;lat;lon;timestamp;P1;durP1;ratioP1;P2;durP2;ratioP2
40072;SDS011;25774;52.256;9.356;2023-03-15T00:00:26;3.03;;;0.80;;
40072;SDS011;25774;52.256;9.356;2023-03-15T00:02:52;14.43;;;1.23;;
40072;SDS011;25774;52.256;9.356;2023-03-15T00:05:17;3.07;;;0.70;;
40072;SDS011;25774;52.256;9.356;2023-03-15T00:07:42;8.87;;;1.20;;
40072;SDS011;25774;52.256;9.356;2023-03-15T00:10:07;5.07;;;0.90;;
40072;SDS011;25774;52.256;9.356;2023-03-15T00:12:33;5.07;;;1.10;;
40072;SDS011;25774;52.256;9.356;2023-03-15T00:14:58;14.43;;;1.40;;
40072;SDS011;25774;52.256;9.356;2023-03-15T00:17:23;8.90;;;1.30;;
40072;SDS011;25774;52.256;9.356;2023-03-15T00:19:48;6.03;;;1.10;;
40072;SDS011;25774;52.256;9.356;2023-03-15T00:22:14;4.83;;;1.13;;
40072;SDS011;25774;52.256;9.356;2023-03-15T00:24:39;6.17;;;1.20;;
40072;SDS011;25774;52.256;9.356;2023-03-15T00:27:04;15.27;;;1.20;;
40072;SDS011;25774;52.256;9.356;2023-03-15T00:29:30;7.60;;;1.03;;
40072;SDS011;25774;52.256;9.356;2023-03-15T00:31:55;7.60;;;1.50;;
40072;SDS011;25774;52.256;9.356;2023-03-15T00:34:20;7.93;;;1.13;;
40072;SDS011;25774;52.256;9.356;2023-03-15T00:36:49;13.88;;;1.92;;
40072;SDS011;25774;52.256;9.356;2023-03-15T00:39:19;10.55;;;1.45;;
40072;SDS011;25774;52.256;9.356;2023-03-15T00:41:44;4.82;;;0.90;;
40072;SDS011;25774;52.256;9.356;2023-03-15T00:44:10;6.10;;;0.80;;
40072;SDS011;25774;52.256;9.356;2023-03-15T00:46:35;10.33;;;1.23;;
40072;SDS011;25774;52.256;9.356;2023-03-15T00:49:00;8.13;;;1.67;;
40072;SDS011;25774;52.256;9.356;2023-03-15T00:51:25;5.83;;;0.87;;
40072;SDS011;25774;52.256;9.356;2023-03-15T00:53:51;5.33;;;0.77;;
40072;SDS011;25774;52.256;9.356;2023-03-15T00:56:19;7.55;;;1.00;;
40072;SDS011;25774;52.256;9.356;2023-03-15T00:58:44;8.75;;;1.70;;
40072;SDS011;25774;52.256;9.356;2023-03-15T01:01:11;7.73;;;1.17;;
40072;SDS011;25774;52.256;9.356;2023-03-15T01:03:36;4.38;;;0.70;;
40072;SDS011;25774;52.256;9.356;2023-03-15T01:06:09;4.63;;;0.80;;
40072;SDS011;25774;52.256;9.356;2023-03-15T01:08:35;5.93;;;0.90;;
40072;SDS011;25774;52.256;9.356;2023-03-15T01:11:01;4.97;;;0.83;;
40072;SDS011;25774;52.256;9.356;2023-03-15T01:13:26;6.90;;;1.00;;
40072;SDS011;25774;52.256;9.356;2023-03-15T01:15:51;7.90;;;1.13;;
40072;SDS011;25774;52.256;9.356;2023-03-15T01:18:17;8.60;;;1.20;;
40072;SDS011;25774;52.256;9.356;2023-03-15T01:20:43;3.10;;;1.53;;
40072;SDS011;25774;52.256;9.356;2023-03-15T01:23:09;5.40;;;0.82;;
40072;SDS011;25774;52.256;9.356;2023-03-15T01:25:34;11.80;;;2.23;;
40072;SDS011;25774;52.256;9.356;2023-03-15T01:27:59;4.93;;;1.00;;
40072;SDS011;25774;52.256;9.356;2023-03-15T01:30:24;4.53;;;1.53;;
40072;SDS011;25774;52.256;9.356;2023-03-15T01:32:49;7.33;;;0.90;;
40072;SDS011;25774;52.256;9.356;2023-03-15T01:35:15;7.00;;;1.10;;
40072;SDS011;25774;52.256;9.356;2023-03-15T01:37:40;6.00;;;1.10;;
40072;SDS011;25774;52.256;9.356;2023-03-15T01:40:06;8.10;;;1.40;;
40072;SDS011;25774;52.256;9.356;2023-03-15T01:42:49;13.43;;;1.10;;
40072;SDS011;25774;52.256;9.356;2023-03-15T01:47:58;5.20;;;1.05;;
40072;SDS011;25774;52.256;9.356;2023-03-15T01:50:24;8.80;;;2.00;;
40072;SDS011;25774;52.256;9.356;2023-03-15T01:52:50;6.80;;;1.13;;
40072;SDS011;25774;52.256;9.356;2023-03-15T01:55:15;7.72;;;1.13;;
40072;SDS011;25774;52.256;9.356;2023-03-15T01:57:50;8.48;;;1.10;;
40072;SDS011;25774;52.256;9.356;2023-03-15T02:00:20;8.88;;;1.05;;
40072;SDS011;25774;52.256;9.356;2023-03-15T02:02:46;9.30;;;1.10;;
40072;SDS011;25774;52.256;9.356;2023-03-15T02:05:17;6.55;;;1.00;;
40072;SDS011;25774;52.256;9.356;2023-03-15T02:07:43;10.15;;;1.55;;
40072;SDS011;25774;52.256;9.356;2023-03-15T02:10:14;8.05;;;1.55;;
40072;SDS011;25774;52.256;9.356;2023-03-15T02:12:41;10.05;;;1.45;;
40072;SDS011;25774;52.256;9.356;2023-03-15T02:15:07;9.60;;;1.50;;
40072;SDS011;25774;52.256;9.356;2023-03-15T02:17:35;10.70;;;1.63;;
40072;SDS011;25774;52.256;9.356;2023-03-15T02:20:12;10.50;;;1.02;;
40072;SDS011;25774;52.256;9.356;2023-03-15T02:25:10;8.25;;;1.38;;
40072;SDS011;25774;52.256;9.356;2023-03-15T02:27:37;7.05;;;1.30;;
40072;SDS011;25774;52.256;9.356;2023-03-15T02:30:03;4.65;;;1.10;;
40072;SDS011;25774;52.256;9.356;2023-03-15T02:32:29;5.37;;;1.10;;
40072;SDS011;25774;52.256;9.356;2023-03-15T02:34:54;7.90;;;1.45;;
40072;SDS011;25774;52.256;9.356;2023-03-15T02:37:20;8.87;;;1.30;;
40072;SDS011;25774;52.256;9.356;2023-03-15T02:39:45;12.20;;;2.17;;
40072;SDS011;25774;52.256;9.356;2023-03-15T02:42:10;10.50;;;1.73;;
40072;SDS011;25774;52.256;9.356;2023-03-15T02:44:36;9.43;;;1.23;;
40072;SDS011;25774;52.256;9.356;2023-03-15T02:47:06;12.32;;;1.58;;
40072;SDS011;25774;52.256;9.356;2023-03-15T02:49:34;6.70;;;1.35;;
40072;SDS011;25774;52.256;9.356;2023-03-15T02:52:01;8.90;;;1.20;;
40072;SDS011;25774;52.256;9.356;2023-03-15T02:54:26;9.87;;;1.70;;
40072;SDS011;25774;52.256;9.356;2023-03-15T02:56:51;9.63;;;1.60;;
40072;SDS011;25774;52.256;9.356;2023-03-15T02:59:17;6.17;;;1.57;;
40072;SDS011;25774;52.256;9.356;2023-03-15T03:01:42;3.37;;;1.50;;
40072;SDS011;25774;52.256;9.356;2023-03-15T03:04:09;9.02;;;1.55;;
40072;SDS011;25774;52.256;9.356;2023-03-15T03:06:35;11.90;;;1.73;;
40072;SDS011;25774;52.256;9.356;2023-03-15T03:09:00;5.33;;;1.70;;
40072;SDS011;25774;52.256;9.356;2023-03-15T03:11:27;11.05;;;1.90;;
40072;SDS011;25774;52.256;9.356;2023-03-15T03:13:52;7.67;;;2.07;;
40072;SDS011;25774;52.256;9.356;2023-03-15T03:16:17;2.97;;;1.43;;
40072;SDS011;25774;52.256;9.356;2023-03-15T03:18:43;8.83;;;1.73;;
40072;SDS011;25774;52.256;9.356;2023-03-15T03:21:09;5.90;;;1.33;;
40072;SDS011;25774;52.256;9.356;2023-03-15T03:23:34;6.10;;;2.43;;
40072;SDS011;25774;52.256;9.356;2023-03-15T03:26:00;13.15;;;1.80;;
40072;SDS011;25774;52.256;9.356;2023-03-15T03:28:26;10.55;;;1.92;;
40072;SDS011;25774;52.256;9.356;2023-03-15T03:30:52;7.75;;;2.13;;
40072;SDS011;25774;52.256;9.356;2023-03-15T03:33:18;8.45;;;1.83;;
40072;SDS011;25774;52.256;9.356;2023-03-15T03:35:43;7.37;;;1.80;;
40072;SDS011;25774;52.256;9.356;2023-03-15T03:38:08;6.23;;;1.80;;
40072;SDS011;25774;52.256;9.356;2023-03-15T03:40:35;8.65;;;2.35;;
40072;SDS011;25774;52.256;9.356;2023-03-15T03:43:00;7.77;;;1.87;;
40072;SDS011;25774;52.256;9.356;2023-03-15T03:45:25;6.73;;;2.00;;
40072;SDS011;25774;52.256;9.356;2023-03-15T03:47:50;8.73;;;2.27;;
40072;SDS011;25774;52.256;9.356;2023-03-15T03:50:15;7.90;;;1.83;;
40072;SDS011;25774;52.256;9.356;2023-03-15T03:52:41;5.07;;;2.03;;
40072;SDS011;25774;52.256;9.356;2023-03-15T03:55:07;7.55;;;2.05;;
40072;SDS011;25774;52.256;9.356;2023-03-15T03:57:34;6.23;;;2.40;;
40072;SDS011;25774;52.256;9.356;2023-03-15T03:59:59;6.63;;;2.05;;
40072;SDS011;25774;52.256;9.356;2023-03-15T04:02:24;7.53;;;2.20;;
40072;SDS011;25774;52.256;9.356;2023-03-15T04:04:49;4.37;;;1.60;;
40072;SDS011;25774;52.256;9.356;2023-03-15T04:07:15;9.87;;;2.60;;
40072;SDS011;25774;52.256;9.356;2023-03-15T04:09:40;5.73;;;1.83;;
40072;SDS011;25774;52.256;9.356;2023-03-15T04:12:05;9.37;;;2.30;;
40072;SDS011;25774;52.256;9.356;2023-03-15T04:14:31;4.07;;;1.90;;
40072;SDS011;25774;52.256;9.356;2023-03-15T04:16:56;5.23;;;2.10;;
40072;SDS011;25774;52.256;9.356;2023-03-15T04:19:21;3.57;;;2.00;;
40072;SDS011;25774;52.256;9.356;2023-03-15T04:21:47;4.13;;;1.87;;
40072;SDS011;25774;52.256;9.356;2023-03-15T04:24:12;7.07;;;1.90;;
40072;SDS011;25774;52.256;9.356;2023-03-15T04:26:38;5.95;;;2.25;;
40072;SDS011;25774;52.256;9.356;2023-03-15T04:29:03;5.00;;;2.03;;
40072;SDS011;25774;52.256;9.356;2023-03-15T04:31:29;5.45;;;2.65;;
40072;SDS011;25774;52.256;9.356;2023-03-15T04:34:01;6.43;;;2.20;;
40072;SDS011;25774;52.256;9.356;2023-03-15T04:36:26;6.17;;;2.13;;
40072;SDS011;25774;52.256;9.356;2023-03-15T04:38:52;4.33;;;2.10;;
40072;SDS011;25774;52.256;9.356;2023-03-15T04:41:28;4.13;;;2.13;;
40072;SDS011;25774;52.256;9.356;2023-03-15T04:43:53;6.50;;;2.43;;
40072;SDS011;25774;52.256;9.356;2023-03-15T04:46:19;4.20;;;2.40;;
40072;SDS011;25774;52.256;9.356;2023-03-15T04:48:44;6.47;;;2.70;;
40072;SDS011;25774;52.256;9.356;2023-03-15T04:51:09;7.57;;;2.33;;
40072;SDS011;25774;52.256;9.356;2023-03-15T04:53:34;6.17;;;2.57;;
40072;SDS011;25774;52.256;9.356;2023-03-15T04:56:00;5.63;;;2.37;;
40072;SDS011;25774;52.256;9.356;2023-03-15T04:58:26;6.53;;;2.97;;
40072;SDS011;25774;52.256;9.356;2023-03-15T05:00:51;4.63;;;2.30;;
40072;SDS011;25774;52.256;9.356;2023-03-15T05:03:16;6.28;;;2.63;;
40072;SDS011;25774;52.256;9.356;2023-03-15T05:05:43;6.17;;;2.37;;
40072;SDS011;25774;52.256;9.356;2023-03-15T05:08:08;6.22;;;2.70;;
40072;SDS011;25774;52.256;9.356;2023-03-15T05:10:34;7.57;;;2.70;;
40072;SDS011;25774;52.256;9.356;2023-03-15T05:12:59;4.68;;;2.03;;
40072;SDS011;25774;52.256;9.356;2023-03-15T05:15:25;3.90;;;2.20;;
40072;SDS011;25774;52.256;9.356;2023-03-15T05:17:50;7.20;;;2.55;;
40072;SDS011;25774;52.256;9.356;2023-03-15T05:20:19;7.82;;;2.47;;
40072;SDS011;25774;52.256;9.356;2023-03-15T05:22:44;5.75;;;2.42;;
40072;SDS011;25774;52.256;9.356;2023-03-15T05:25:09;5.70;;;2.77;;
40072;SDS011;25774;52.256;9.356;2023-03-15T05:27:35;4.70;;;2.30;;
40072;SDS011;25774;52.256;9.356;2023-03-15T05:30:00;9.50;;;3.10;;
40072;SDS011;25774;52.256;9.356;2023-03-15T05:32:28;7.63;;;2.40;;
40072;SDS011;25774;52.256;9.356;2023-03-15T05:34:58;9.00;;;2.53;;
40072;SDS011;25774;52.256;9.356;2023-03-15T05:37:23;6.70;;;2.70;;
40072;SDS011;25774;52.256;9.356;2023-03-15T05:39:48;5.75;;;2.65;;
40072;SDS011;25774;52.256;9.356;2023-03-15T05:42:14;12.13;;;2.60;;
40072;SDS011;25774;52.256;9.356;2023-03-15T05:44:40;6.57;;;2.67;;
40072;SDS011;25774;52.256;9.356;2023-03-15T05:47:07;6.35;;;2.45;;
40072;SDS011;25774;52.256;9.356;2023-03-15T05:49:32;7.82;;;2.70;;
40072;SDS011;25774;52.256;9.356;2023-03-15T05:51:57;7.47;;;2.83;;
40072;SDS011;25774;52.256;9.356;2023-03-15T05:54:22;7.57;;;3.13;;
40072;SDS011;25774;52.256;9.356;2023-03-15T05:56:47;5.27;;;2.93;;
40072;SDS011;25774;52.256;9.356;2023-03-15T05:59:13;5.73;;;2.80;;
40072;SDS011;25774;52.256;9.356;2023-03-15T06:01:38;15.20;;;4.13;;
40072;SDS011;25774;52.256;9.356;2023-03-15T06:04:03;8.23;;;3.00;;
40072;SDS011;25774;52.256;9.356;2023-03-15T06:06:28;6.27;;;2.43;;
40072;SDS011;25774;52.256;9.356;2023-03-15T06:08:54;6.77;;;2.90;;
40072;SDS011;25774;52.256;9.356;2023-03-15T06:11:20;5.30;;;3.00;;
40072;SDS011;25774;52.256;9.356;2023-03-15T06:13:46;9.30;;;3.38;;
40072;SDS011;25774;52.256;9.356;2023-03-15T06:16:11;8.93;;;3.13;;
40072;SDS011;25774;52.256;9.356;2023-03-15T06:18:36;7.07;;;2.80;;
40072;SDS011;25774;52.256;9.356;2023-03-15T06:21:02;11.37;;;2.87;;
40072;SDS011;25774;52.256;9.356;2023-03-15T06:23:27;9.32;;;3.40;;
40072;SDS011;25774;52.256;9.356;2023-03-15T06:25:53;6.97;;;3.07;;
40072;SDS011;25774;52.256;9.356;2023-03-15T06:28:18;9.60;;;4.17;;
40072;SDS011;25774;52.256;9.356;2023-03-15T06:30:43;6.37;;;3.13;;
40072;SDS011;25774;52.256;9.356;2023-03-15T06:33:08;7.67;;;3.50;;
40072;SDS011;25774;52.256;9.356;2023-03-15T06:35:33;6.50;;;3.10;;
40072;SDS011;25774;52.256;9.356;2023-03-15T06:37:59;6.87;;;2.50;;
40072;SDS011;25774;52.256;9.356;2023-03-15T06:40:25;5.40;;;2.67;;
40072;SDS011;25774;52.256;9.356;2023-03-15T06:42:50;7.77;;;2.90;;
40072;SDS011;25774;52.256;9.356;2023-03-15T06:45:16;6.40;;;3.07;;
40072;SDS011;25774;52.256;9.356;2023-03-15T06:47:41;10.13;;;4.20;;
40072;SDS011;25774;52.256;9.356;2023-03-15T06:50:07;8.47;;;3.17;;
40072;SDS011;25774;52.256;9.356;2023-03-15T06:52:32;7.70;;;2.93;;
40072;SDS011;25774;52.256;9.356;2023-03-15T06:54:57;6.47;;;2.83;;
40072;SDS011;25774;52.256;9.356;2023-03-15T06:57:23;6.70;;;2.77;;
40072;SDS011;25774;52.256;9.356;2023-03-15T06:59:50;11.03;;;3.17;;
40072;SDS011;25774;52.256;9.356;2023-03-15T07:02:18;4.47;;;2.33;;
40072;SDS011;25774;52.256;9.356;2023-03-15T07:04:43;7.73;;;2.87;;
40072;SDS011;25774;52.256;9.356;2023-03-15T07:07:09;6.93;;;3.07;;
40072;SDS011;25774;52.256;9.356;2023-03-15T07:09:35;9.85;;;3.30;;
40072;SDS011;25774;52.256;9.356;2023-03-15T07:12:00;5.17;;;2.60;;
40072;SDS011;25774;52.256;9.356;2023-03-15T07:14:25;9.33;;;3.67;;
40072;SDS011;25774;52.256;9.356;2023-03-15T07:16:50;6.10;;;3.20;;
40072;SDS011;25774;52.256;9.356;2023-03-15T07:19:17;5.83;;;2.63;;
40072;SDS011;25774;52.256;9.356;2023-03-15T07:21:42;4.72;;;2.50;;
40072;SDS011;25774;52.256;9.356;2023-03-15T07:24:07;3.83;;;2.00;;
40072;SDS011;25774;52.256;9.356;2023-03-15T07:26:32;8.67;;;2.33;;
40072;SDS011;25774;52.256;9.356;2023-03-15T07:28:57;7.33;;;2.60;;
40072;SDS011;25774;52.256;9.356;2023-03-15T07:31:23;4.73;;;2.30;;
40072;SDS011;25774;52.256;9.356;2023-03-15T07:33:49;11.23;;;2.60;;
40072;SDS011;25774;52.256;9.356;2023-03-15T07:36:14;4.05;;;1.98;;
40072;SDS011;25774;52.256;9.356;2023-03-15T07:38:39;4.50;;;2.10;;
40072;SDS011;25774;52.256;9.356;2023-03-15T07:41:06;6.88;;;2.10;;
40072;SDS011;25774;52.256;9.356;2023-03-15T07:43:31;6.80;;;2.00;;
40072;SDS011;25774;52.256;9.356;2023-03-15T07:45:57;7.25;;;3.03;;
40072;SDS011;25774;52.256;9.356;2023-03-15T07:48:22;13.23;;;4.07;;
40072;SDS011;25774;52.256;9.356;2023-03-15T07:50:47;5.23;;;2.03;;
40072;SDS011;25774;52.256;9.356;2023-03-15T07:53:12;7.60;;;1.93;;
40072;SDS011;25774;52.256;9.356;2023-03-15T07:55:38;6.60;;;1.80;;
40072;SDS011;25774;52.256;9.356;2023-03-15T07:58:03;5.10;;;2.03;;
40072;SDS011;25774;52.256;9.356;2023-03-15T08:00:29;5.35;;;2.63;;
40072;SDS011;25774;52.256;9.356;2023-03-15T08:02:56;8.03;;;2.67;;
40072;SDS011;25774;52.256;9.356;2023-03-15T08:05:21;9.85;;;2.67;;
40072;SDS011;25774;52.256;9.356;2023-03-15T08:07:48;6.05;;;2.33;;
40072;SDS011;25774;52.256;9.356;2023-03-15T08:10:13;7.40;;;2.43;;
40072;SDS011;25774;52.256;9.356;2023-03-15T08:12:39;9.02;;;2.50;;
40072;SDS011;25774;52.256;9.356;2023-03-15T08:15:07;7.63;;;2.53;;
40072;SDS011;25774;52.256;9.356;2023-03-15T08:17:34;7.70;;;2.28;;
40072;SDS011;25774;52.256;9.356;2023-03-15T08:19:59;9.90;;;2.20;;
40072;SDS011;25774;52.256;9.356;2023-03-15T08:22:30;8.55;;;2.55;;
40072;SDS011;25774;52.256;9.356;2023-03-15T08:24:56;4.57;;;1.77;;
40072;SDS011;25774;52.256;9.356;2023-03-15T08:27:22;4.47;;;1.83;;
40072;SDS011;25774;52.256;9.356;2023-03-15T08:29:47;2.75;;;1.48;;
40072;SDS011;25774;52.256;9.356;2023-03-15T08:32:15;5.10;;;1.60;;
40072;SDS011;25774;52.256;9.356;2023-03-15T08:34:40;4.88;;;1.40;;
40072;SDS011;25774;52.256;9.356;2023-03-15T08:37:06;6.05;;;1.73;;
40072;SDS011;25774;52.256;9.356;2023-03-15T08:39:31;7.17;;;1.70;;
40072;SDS011;25774;52.256;9.356;2023-03-15T08:41:56;6.23;;;1.07;;
40072;SDS011;25774;52.256;9.356;2023-03-15T08:44:22;9.63;;;1.40;;
40072;SDS011;25774;52.256;9.356;2023-03-15T08:46:47;5.27;;;1.10;;
40072;SDS011;25774;52.256;9.356;2023-03-15T08:49:12;7.60;;;1.53;;
40072;SDS011;25774;52.256;9.356;2023-03-15T08:51:37;5.87;;;1.23;;
40072;SDS011;25774;52.256;9.356;2023-03-15T08:54:03;12.23;;;1.90;;
40072;SDS011;25774;52.256;9.356;2023-03-15T08:56:29;8.25;;;1.90;;
40072;SDS011;25774;52.256;9.356;2023-03-15T08:58:56;5.10;;;1.10;;
40072;SDS011;25774;52.256;9.356;2023-03-15T09:01:21;3.57;;;1.00;;
40072;SDS011;25774;52.256;9.356;2023-03-15T09:03:47;5.83;;;1.33;;
40072;SDS011;25774;52.256;9.356;2023-03-15T09:06:13;5.13;;;1.23;;
40072;SDS011;25774;52.256;9.356;2023-03-15T09:08:38;5.03;;;1.37;;
40072;SDS011;25774;52.256;9.356;2023-03-15T09:11:04;5.87;;;1.13;;
40072;SDS011;25774;52.256;9.356;2023-03-15T09:13:32;7.10;;;1.50;;
40072;SDS011;25774;52.256;9.356;2023-03-15T09:15:58;9.87;;;1.83;;
40072;SDS011;25774;52.256;9.356;2023-03-15T09:18:25;10.02;;;1.23;;
40072;SDS011;25774;52.256;9.356;2023-03-15T09:20:50;4.90;;;1.30;;
40072;SDS011;25774;52.256;9.356;2023-03-15T09:23:16;3.80;;;1.07;;
40072;SDS011;25774;52.256;9.356;2023-03-15T09:25:41;7.50;;;1.50;;
40072;SDS011;25774;52.256;9.356;2023-03-15T09:28:08;10.03;;;1.93;;
40072;SDS011;25774;52.256;9.356;2023-03-15T09:30:34;8.68;;;1.27;;
40072;SDS011;25774;52.256;9.356;2023-03-15T09:33:00;5.00;;;1.65;;
40072;SDS011;25774;52.256;9.356;2023-03-15T09:35:26;9.50;;;1.65;;
40072;SDS011;25774;52.256;9.356;2023-03-15T09:37:52;3.17;;;1.05;;
40072;SDS011;25774;52.256;9.356;2023-03-15T09:40:27;5.37;;;1.23;;
40072;SDS011;25774;52.256;9.356;2023-03-15T09:43:08;5.70;;;1.67;;
40072;SDS011;25774;52.256;9.356;2023-03-15T09:45:45;6.40;;;1.30;;
40072;SDS011;25774;52.256;9.356;2023-03-15T09:48:15;6.15;;;1.40;;
40072;SDS011;25774;52.256;9.356;2023-03-15T09:55:42;9.25;;;1.45;;
40072;SDS011;25774;52.256;9.356;2023-03-15T09:58:11;11.05;;;1.95;;
40072;SDS011;25774;52.256;9.356;2023-03-15T10:00:39;4.43;;;0.95;;
40072;SDS011;25774;52.256;9.356;2023-03-15T10:03:05;6.32;;;1.08;;
40072;SDS011;25774;52.256;9.356;2023-03-15T10:05:46;9.45;;;1.50;;
40072;SDS011;25774;52.256;9.356;2023-03-15T10:08:16;7.25;;;1.35;;
40072;SDS011;25774;52.256;9.356;2023-03-15T10:10:47;9.73;;;1.27;;
40072;SDS011;25774;52.256;9.356;2023-03-15T10:16:10;8.90;;;1.35;;
40072;SDS011;25774;52.256;9.356;2023-03-15T10:21:28;5.60;;;1.10;;
40072;SDS011;25774;52.256;9.356;2023-03-15T10:23:55;3.90;;;0.70;;
40072;SDS011;25774;52.256;9.356;2023-03-15T10:26:26;7.65;;;1.10;;
40072;SDS011;25774;52.256;9.356;2023-03-15T10:28:55;4.40;;;1.05;;
40072;SDS011;25774;52.256;9.356;2023-03-15T10:31:23;6.10;;;0.70;;
40072;SDS011;25774;52.256;9.356;2023-03-15T10:33:49;9.07;;;1.38;;
40072;SDS011;25774;52.256;9.356;2023-03-15T10:36:19;6.63;;;1.03;;
40072;SDS011;25774;52.256;9.356;2023-03-15T10:38:46;8.38;;;1.25;;
40072;SDS011;25774;52.256;9.356;2023-03-15T10:44:06;5.55;;;0.80;;
40072;SDS011;25774;52.256;9.356;2023-03-15T10:46:31;6.35;;;1.20;;
40072;SDS011;25774;52.256;9.356;2023-03-15T10:49:12;15.60;;;1.17;;
40072;SDS011;25774;52.256;9.356;2023-03-15T10:51:40;3.13;;;0.70;;
40072;SDS011;25774;52.256;9.356;2023-03-15T10:54:19;4.45;;;1.02;;
40072;SDS011;25774;52.256;9.356;2023-03-15T10:56:47;11.98;;;1.88;;
40072;SDS011;25774;52.256;9.356;2023-03-15T10:59:23;7.60;;;1.10;;
40072;SDS011;25774;52.256;9.356;2023-03-15T11:01:52;4.13;;;0.77;;
40072;SDS011;25774;52.256;9.356;2023-03-15T11:04:22;11.57;;;1.58;;
40072;SDS011;25774;52.256;9.356;2023-03-15T11:09:23;5.45;;;1.45;;
40072;SDS011;25774;52.256;9.356;2023-03-15T11:12:00;6.63;;;1.30;;
40072;SDS011;25774;52.256;9.356;2023-03-15T11:14:47;5.15;;;0.75;;
40072;SDS011;25774;52.256;9.356;2023-03-15T11:17:17;4.47;;;0.80;;
40072;SDS011;25774;52.256;9.356;2023-03-15T11:19:45;7.38;;;1.45;;
40072;SDS011;25774;52.256;9.356;2023-03-15T11:22:17;8.18;;;1.63;;
40072;SDS011;25774;52.256;9.356;2023-03-15T11:24:43;3.38;;;1.10;;
40072;SDS011;25774;52.256;9.356;2023-03-15T11:27:10;5.72;;;1.00;;
40072;SDS011;25774;52.256;9.356;2023-03-15T11:29:38;3.63;;;0.70;;
40072;SDS011;25774;52.256;9.356;2023-03-15T11:32:13;2.55;;;0.60;;
40072;SDS011;25774;52.256;9.356;2023-03-15T11:37:18;4.13;;;0.82;;
40072;SDS011;25774;52.256;9.356;2023-03-15T11:42:52;3.92;;;0.75;;
40072;SDS011;25774;52.256;9.356;2023-03-15T11:48:13;4.00;;;0.93;;
40072;SDS011;25774;52.256;9.356;2023-03-15T11:50:43;5.88;;;0.80;;
40072;SDS011;25774;52.256;9.356;2023-03-15T11:53:12;3.67;;;1.10;;
40072;SDS011;25774;52.256;9.356;2023-03-15T11:55:38;3.72;;;0.63;;
40072;SDS011;25774;52.256;9.356;2023-03-15T11:58:46;5.43;;;0.70;;
40072;SDS011;25774;52.256;9.356;2023-03-15T12:00:59;3.95;;;0.70;;
40072;SDS011;25774;52.256;9.356;2023-03-15T12:03:33;10.93;;;1.15;;
40072;SDS011;25774;52.256;9.356;2023-03-15T12:06:09;4.47;;;0.98;;
40072;SDS011;25774;52.256;9.356;2023-03-15T12:08:47;7.22;;;1.30;;
40072;SDS011;25774;52.256;9.356;2023-03-15T12:16:29;2.38;;;0.52;;
40072;SDS011;25774;52.256;9.356;2023-03-15T12:19:39;6.78;;;1.35;;
40072;SDS011;25774;52.256;9.356;2023-03-15T12:21:47;2.72;;;0.63;;
40072;SDS011;25774;52.256;9.356;2023-03-15T12:26:47;2.03;;;0.57;;
40072;SDS011;25774;52.256;9.356;2023-03-15T12:29:30;3.83;;;0.50;;
40072;SDS011;25774;52.256;9.356;2023-03-15T12:32:18;3.42;;;0.43;;
40072;SDS011;25774;52.256;9.356;2023-03-15T12:34:48;5.55;;;0.63;;
40072;SDS011;25774;52.256;9.356;2023-03-15T12:45:32;1.17;;;0.52;;
40072;SDS011;25774;52.256;9.356;2023-03-15T12:55:48;2.13;;;0.68;;
40072;SDS011;25774;52.256;9.356;2023-03-15T12:58:15;0.93;;;0.52;;
40072;SDS011;25774;52.256;9.356;2023-03-15T13:00:41;1.23;;;0.40;;
40072;SDS011;25774;52.256;9.356;2023-03-15T13:03:09;1.85;;;0.43;;
40072;SDS011;25774;52.256;9.356;2023-03-15T13:08:21;0.80;;;0.35;;
40072;SDS011;25774;52.256;9.356;2023-03-15T13:13:34;2.83;;;0.40;;
40072;SDS011;25774;52.256;9.356;2023-03-15T13:16:05;1.13;;;0.32;;
40072;SDS011;25774;52.256;9.356;2023-03-15T13:18:35;4.18;;;0.57;;
40072;SDS011;25774;52.256;9.356;2023-03-15T13:24:13;3.33;;;0.77;;
40072;SDS011;25774;52.256;9.356;2023-03-15T13:31:32;3.33;;;0.75;;
40072;SDS011;25774;52.256;9.356;2023-03-15T13:34:10;4.05;;;1.35;;
40072;SDS011;25774;52.256;9.356;2023-03-15T13:36:40;6.55;;;0.93;;
40072;SDS011;25774;52.256;9.356;2023-03-15T13:39:13;3.70;;;0.55;;
40072;SDS011;25774;52.256;9.356;2023-03-15T13:41:40;6.55;;;0.73;;
40072;SDS011;25774;52.256;9.356;2023-03-15T13:44:12;1.67;;;0.50;;
40072;SDS011;25774;52.256;9.356;2023-03-15T13:46:38;2.67;;;0.28;;
40072;SDS011;25774;52.256;9.356;2023-03-15T13:49:04;0.98;;;0.45;;
40072;SDS011;25774;52.256;9.356;2023-03-15T13:53:59;3.97;;;0.43;;
40072;SDS011;25774;52.256;9.356;2023-03-15T13:56:27;4.05;;;0.63;;
40072;SDS011;25774;52.256;9.356;2023-03-15T13:58:53;3.90;;;0.73;;
40072;SDS011;25774;52.256;9.356;2023-03-15T14:01:18;3.37;;;0.40;;
40072;SDS011;25774;52.256;9.356;2023-03-15T14:03:46;7.22;;;1.13;;
40072;SDS011;25774;52.256;9.356;2023-03-15T14:06:12;6.47;;;0.50;;
40072;SDS011;25774;52.256;9.356;2023-03-15T14:08:43;4.47;;;0.50;;
40072;SDS011;25774;52.256;9.356;2023-03-15T14:11:30;1.57;;;0.40;;
40072;SDS011;25774;52.256;9.356;2023-03-15T14:13:57;3.28;;;0.93;;
40072;SDS011;25774;52.256;9.356;2023-03-15T14:16:33;9.90;;;0.70;;
40072;SDS011;25774;52.256;9.356;2023-03-15T14:19:12;5.10;;;0.70;;
40072;SDS011;25774;52.256;9.356;2023-03-15T14:21:40;5.22;;;0.55;;
40072;SDS011;25774;52.256;9.356;2023-03-15T14:24:07;2.42;;;0.90;;
40072;SDS011;25774;52.256;9.356;2023-03-15T14:26:33;4.53;;;0.90;;
40072;SDS011;25774;52.256;9.356;2023-03-15T14:29:06;5.03;;;0.50;;
40072;SDS011;25774;52.256;9.356;2023-03-15T14:31:45;5.63;;;0.85;;
40072;SDS011;25774;52.256;9.356;2023-03-15T14:34:29;4.22;;;0.47;;
40072;SDS011;25774;52.256;9.356;2023-03-15T14:36:59;3.17;;;0.55;;
40072;SDS011;25774;52.256;9.356;2023-03-15T14:41:57;5.07;;;0.68;;
40072;SDS011;25774;52.256;9.356;2023-03-15T14:44:22;3.43;;;0.80;;
40072;SDS011;25774;52.256;9.356;2023-03-15T14:46:47;1.97;;;0.63;;
40072;SDS011;25774;52.256;9.356;2023-03-15T14:49:15;6.87;;;0.60;;
40072;SDS011;25774;52.256;9.356;2023-03-15T14:51:43;5.38;;;1.50;;
40072;SDS011;25774;52.256;9.356;2023-03-15T14:54:08;3.00;;;0.30;;
40072;SDS011;25774;52.256;9.356;2023-03-15T14:56:33;2.87;;;0.83;;
40072;SDS011;25774;52.256;9.356;2023-03-15T14:59:01;5.53;;;0.85;;
40072;SDS011;25774;52.256;9.356;2023-03-15T15:01:28;5.88;;;0.55;;
40072;SDS011;25774;52.256;9.356;2023-03-15T15:03:55;7.15;;;0.60;;
40072;SDS011;25774;52.256;9.356;2023-03-15T15:06:22;2.53;;;0.52;;
40072;SDS011;25774;52.256;9.356;2023-03-15T15:08:54;3.50;;;0.60;;
40072;SDS011;25774;52.256;9.356;2023-03-15T15:11:19;1.50;;;0.47;;
40072;SDS011;25774;52.256;9.356;2023-03-15T15:13:44;3.60;;;0.83;;
40072;SDS011;25774;52.256;9.356;2023-03-15T15:16:10;5.00;;;0.50;;
40072;SDS011;25774;52.256;9.356;2023-03-15T15:18:35;1.93;;;0.60;;
40072;SDS011;25774;52.256;9.356;2023-03-15T15:21:02;3.08;;;0.80;;
40072;SDS011;25774;52.256;9.356;2023-03-15T15:23:28;2.88;;;0.40;;
40072;SDS011;25774;52.256;9.356;2023-03-15T15:25:58;4.07;;;0.60;;
40072;SDS011;25774;52.256;9.356;2023-03-15T15:28:24;3.55;;;0.68;;
40072;SDS011;25774;52.256;9.356;2023-03-15T15:30:50;3.80;;;0.73;;
40072;SDS011;25774;52.256;9.356;2023-03-15T15:33:15;4.10;;;0.40;;
40072;SDS011;25774;52.256;9.356;2023-03-15T15:35:41;7.83;;;0.97;;
40072;SDS011;25774;52.256;9.356;2023-03-15T15:38:10;5.93;;;0.70;;
40072;SDS011;25774;52.256;9.356;2023-03-15T15:40:35;3.00;;;0.70;;
40072;SDS011;25774;52.256;9.356;2023-03-15T15:43:00;2.67;;;0.70;;
40072;SDS011;25774;52.256;9.356;2023-03-15T15:47:52;5.07;;;0.73;;
40072;SDS011;25774;52.256;9.356;2023-03-15T15:50:18;5.53;;;1.40;;
40072;SDS011;25774;52.256;9.356;2023-03-15T15:52:45;4.65;;;1.55;;
40072;SDS011;25774;52.256;9.356;2023-03-15T15:55:18;4.22;;;0.98;;
40072;SDS011;25774;52.256;9.356;2023-03-15T15:57:46;7.00;;;0.85;;
40072;SDS011;25774;52.256;9.356;2023-03-15T16:00:16;3.35;;;0.47;;